sensor_id;sensor_type;location;lat;lon;timestamp;temperature;humidity
66522;SHT31;53349;53.538;8.584;2024-03-08T00:01:39;3.02;81.86
66522;SHT31;53349;53.538;8.584;2024-03-08T00:04:04;3.06;81.57
66522;SHT31;53349;53.538;8.584;2024-03-08T00:06:30;3.07;81.66
66522;SHT31;53349;53.538;8.584;2024-03-08T00:08:55;2.98;81.98
66522;SHT31;53349;53.538;8.584;2024-03-08T00:11:20;3.03;81.78
66522;SHT31;53349;53.538;8.584;2024-03-08T00:13:46;3.00;81.84
66522;SHT31;53349;53.538;8.584;2024-03-08T00:16:11;3.05;81.71
66522;SHT31;53349;53.538;8.584;2024-03-08T00:18:36;3.02;81.79
66522;SHT31;53349;53.538;8.584;2024-03-08T00:21:02;2.96;82.02
66522;SHT31;53349;53.538;8.584;2024-03-08T00:23:27;2.89;82.35
66522;SHT31;53349;53.538;8.584;2024-03-08T00:25:52;2.91;82.31
66522;SHT31;53349;53.538;8.584;2024-03-08T00:28:18;2.93;82.19
66522;SHT31;53349;53.538;8.584;2024-03-08T00:30:43;2.93;82.32
66522;SHT31;53349;53.538;8.584;2024-03-08T00:33:08;2.92;81.91
66522;SHT31;53349;53.538;8.584;2024-03-08T00:35:34;2.89;82.11
66522;SHT31;53349;53.538;8.584;2024-03-08T00:37:59;2.89;82.12
66522;SHT31;53349;53.538;8.584;2024-03-08T00:40:24;2.82;82.27
66522;SHT31;53349;53.538;8.584;2024-03-08T00:42:50;2.72;82.62
66522;SHT31;53349;53.538;8.584;2024-03-08T00:45:15;2.79;82.49
66522;SHT31;53349;53.538;8.584;2024-03-08T00:47:40;2.78;82.42
66522;SHT31;53349;53.538;8.584;2024-03-08T00:50:06;2.71;82.60
66522;SHT31;53349;53.538;8.584;2024-03-08T00:52:31;2.79;82.25
66522;SHT31;53349;53.538;8.584;2024-03-08T00:54:57;2.62;83.07
66522;SHT31;53349;53.538;8.584;2024-03-08T00:57:22;2.69;82.60
66522;SHT31;53349;53.538;8.584;2024-03-08T00:59:47;2.77;82.30
66522;SHT31;53349;53.538;8.584;2024-03-08T01:02:13;2.68;82.54
66522;SHT31;53349;53.538;8.584;2024-03-08T01:04:38;2.68;82.44
66522;SHT31;53349;53.538;8.584;2024-03-08T01:07:03;2.69;82.48
66522;SHT31;53349;53.538;8.584;2024-03-08T01:09:28;2.62;82.40
66522;SHT31;53349;53.538;8.584;2024-03-08T01:11:54;2.68;82.41
66522;SHT31;53349;53.538;8.584;2024-03-08T01:14:21;2.52;82.75
66522;SHT31;53349;53.538;8.584;2024-03-08T01:16:46;2.59;82.31
66522;SHT31;53349;53.538;8.584;2024-03-08T01:19:12;2.54;82.63
66522;SHT31;53349;53.538;8.584;2024-03-08T01:21:37;2.57;82.41
66522;SHT31;53349;53.538;8.584;2024-03-08T01:24:03;2.45;82.69
66522;SHT31;53349;53.538;8.584;2024-03-08T01:26:28;2.52;82.67
66522;SHT31;53349;53.538;8.584;2024-03-08T01:28:53;2.61;82.44
66522;SHT31;53349;53.538;8.584;2024-03-08T01:31:19;2.47;82.70
66522;SHT31;53349;53.538;8.584;2024-03-08T01:33:44;2.44;82.75
66522;SHT31;53349;53.538;8.584;2024-03-08T01:36:09;2.33;83.09
66522;SHT31;53349;53.538;8.584;2024-03-08T01:38:35;2.34;83.19
66522;SHT31;53349;53.538;8.584;2024-03-08T01:41:00;2.42;82.96
66522;SHT31;53349;53.538;8.584;2024-03-08T01:43:27;2.37;83.10
66522;SHT31;53349;53.538;8.584;2024-03-08T01:45:52;2.33;83.05
66522;SHT31;53349;53.538;8.584;2024-03-08T01:48:18;2.27;83.16
66522;SHT31;53349;53.538;8.584;2024-03-08T01:50:44;2.28;83.14
66522;SHT31;53349;53.538;8.584;2024-03-08T01:53:10;2.30;83.00
66522;SHT31;53349;53.538;8.584;2024-03-08T01:55:36;2.26;83.02
66522;SHT31;53349;53.538;8.584;2024-03-08T01:58:03;2.36;82.75
66522;SHT31;53349;53.538;8.584;2024-03-08T02:00:29;2.36;82.82
66522;SHT31;53349;53.538;8.584;2024-03-08T02:02:55;2.33;82.81
66522;SHT31;53349;53.538;8.584;2024-03-08T02:05:21;2.19;83.09
66522;SHT31;53349;53.538;8.584;2024-03-08T02:07:46;2.09;83.45
66522;SHT31;53349;53.538;8.584;2024-03-08T02:10:12;2.14;83.18
66522;SHT31;53349;53.538;8.584;2024-03-08T02:12:38;2.14;83.37
66522;SHT31;53349;53.538;8.584;2024-03-08T02:15:04;2.05;83.53
66522;SHT31;53349;53.538;8.584;2024-03-08T02:17:29;2.14;83.40
66522;SHT31;53349;53.538;8.584;2024-03-08T02:19:55;2.09;83.41
66522;SHT31;53349;53.538;8.584;2024-03-08T02:22:20;2.02;83.67
66522;SHT31;53349;53.538;8.584;2024-03-08T02:24:45;2.00;83.90
66522;SHT31;53349;53.538;8.584;2024-03-08T02:27:11;2.00;83.84
66522;SHT31;53349;53.538;8.584;2024-03-08T02:29:36;2.00;83.87
66522;SHT31;53349;53.538;8.584;2024-03-08T02:32:02;2.03;83.48
66522;SHT31;53349;53.538;8.584;2024-03-08T02:34:27;1.96;83.87
66522;SHT31;53349;53.538;8.584;2024-03-08T02:36:52;1.98;83.73
66522;SHT31;53349;53.538;8.584;2024-03-08T02:39:18;1.92;84.11
66522;SHT31;53349;53.538;8.584;2024-03-08T02:41:43;1.87;84.32
66522;SHT31;53349;53.538;8.584;2024-03-08T02:44:08;1.92;83.98
66522;SHT31;53349;53.538;8.584;2024-03-08T02:46:33;1.98;83.66
66522;SHT31;53349;53.538;8.584;2024-03-08T02:48:59;1.95;83.78
66522;SHT31;53349;53.538;8.584;2024-03-08T02:51:24;1.89;83.75
66522;SHT31;53349;53.538;8.584;2024-03-08T02:53:49;1.85;83.88
66522;SHT31;53349;53.538;8.584;2024-03-08T02:56:15;1.92;83.65
66522;SHT31;53349;53.538;8.584;2024-03-08T02:58:40;1.92;83.53
66522;SHT31;53349;53.538;8.584;2024-03-08T03:01:06;1.98;83.45
66522;SHT31;53349;53.538;8.584;2024-03-08T03:03:31;1.89;83.56
66522;SHT31;53349;53.538;8.584;2024-03-08T03:05:56;1.92;83.65
66522;SHT31;53349;53.538;8.584;2024-03-08T03:08:22;1.85;83.79
66522;SHT31;53349;53.538;8.584;2024-03-08T03:10:47;1.86;83.54
66522;SHT31;53349;53.538;8.584;2024-03-08T03:13:12;1.85;83.69
66522;SHT31;53349;53.538;8.584;2024-03-08T03:15:38;1.83;83.64
66522;SHT31;53349;53.538;8.584;2024-03-08T03:18:03;1.80;83.99
66522;SHT31;53349;53.538;8.584;2024-03-08T03:20:29;1.78;83.94
66522;SHT31;53349;53.538;8.584;2024-03-08T03:22:54;1.72;84.07
66522;SHT31;53349;53.538;8.584;2024-03-08T03:25:20;1.68;84.28
66522;SHT31;53349;53.538;8.584;2024-03-08T03:27:46;1.69;84.25
66522;SHT31;53349;53.538;8.584;2024-03-08T03:30:11;1.75;84.19
66522;SHT31;53349;53.538;8.584;2024-03-08T03:32:37;1.54;84.69
66522;SHT31;53349;53.538;8.584;2024-03-08T03:35:02;1.55;84.54
66522;SHT31;53349;53.538;8.584;2024-03-08T03:37:28;1.55;84.75
66522;SHT31;53349;53.538;8.584;2024-03-08T03:39:53;1.61;84.37
66522;SHT31;53349;53.538;8.584;2024-03-08T03:42:19;1.52;84.60
66522;SHT31;53349;53.538;8.584;2024-03-08T03:44:48;1.55;84.45
66522;SHT31;53349;53.538;8.584;2024-03-08T03:47:16;1.58;84.59
66522;SHT31;53349;53.538;8.584;2024-03-08T03:49:42;1.58;84.39
66522;SHT31;53349;53.538;8.584;2024-03-08T03:52:07;1.62;84.37
66522;SHT31;53349;53.538;8.584;2024-03-08T03:54:32;1.50;84.86
66522;SHT31;53349;53.538;8.584;2024-03-08T03:56:58;1.68;84.08
66522;SHT31;53349;53.538;8.584;2024-03-08T03:59:23;1.63;83.93
66522;SHT31;53349;53.538;8.584;2024-03-08T04:01:49;1.59;84.32
66522;SHT31;53349;53.538;8.584;2024-03-08T04:04:14;1.45;84.40
66522;SHT31;53349;53.538;8.584;2024-03-08T04:06:39;1.47;84.85
66522;SHT31;53349;53.538;8.584;2024-03-08T04:09:05;1.58;84.31
66522;SHT31;53349;53.538;8.584;2024-03-08T04:11:30;1.50;84.38
66522;SHT31;53349;53.538;8.584;2024-03-08T04:13:56;1.45;84.52
66522;SHT31;53349;53.538;8.584;2024-03-08T04:16:21;1.48;84.64
66522;SHT31;53349;53.538;8.584;2024-03-08T04:18:47;1.48;84.56
66522;SHT31;53349;53.538;8.584;2024-03-08T04:21:12;1.50;84.49
66522;SHT31;53349;53.538;8.584;2024-03-08T04:23:37;1.48;84.51
66522;SHT31;53349;53.538;8.584;2024-03-08T04:26:03;1.44;84.75
66522;SHT31;53349;53.538;8.584;2024-03-08T04:28:28;1.42;84.59
66522;SHT31;53349;53.538;8.584;2024-03-08T04:30:54;1.51;84.41
66522;SHT31;53349;53.538;8.584;2024-03-08T04:33:19;1.37;84.72
66522;SHT31;53349;53.538;8.584;2024-03-08T04:35:45;1.42;84.51
66522;SHT31;53349;53.538;8.584;2024-03-08T04:38:11;1.32;84.63
66522;SHT31;53349;53.538;8.584;2024-03-08T04:40:36;1.40;84.69
66522;SHT31;53349;53.538;8.584;2024-03-08T04:43:02;1.28;84.78
66522;SHT31;53349;53.538;8.584;2024-03-08T04:45:27;1.37;84.62
66522;SHT31;53349;53.538;8.584;2024-03-08T04:47:53;1.35;84.89
66522;SHT31;53349;53.538;8.584;2024-03-08T04:50:18;1.20;85.13
66522;SHT31;53349;53.538;8.584;2024-03-08T04:52:44;1.13;85.43
66522;SHT31;53349;53.538;8.584;2024-03-08T04:55:09;1.21;85.21
66522;SHT31;53349;53.538;8.584;2024-03-08T04:57:34;1.19;84.87
66522;SHT31;53349;53.538;8.584;2024-03-08T05:00:00;1.21;85.19
66522;SHT31;53349;53.538;8.584;2024-03-08T05:02:25;1.23;85.00
66522;SHT31;53349;53.538;8.584;2024-03-08T05:04:51;1.19;85.22
66522;SHT31;53349;53.538;8.584;2024-03-08T05:07:17;1.27;85.00
66522;SHT31;53349;53.538;8.584;2024-03-08T05:09:46;1.23;85.02
66522;SHT31;53349;53.538;8.584;2024-03-08T05:12:12;1.20;84.89
66522;SHT31;53349;53.538;8.584;2024-03-08T05:14:37;1.05;85.58
66522;SHT31;53349;53.538;8.584;2024-03-08T05:17:02;1.14;85.09
66522;SHT31;53349;53.538;8.584;2024-03-08T05:19:28;1.10;85.37
66522;SHT31;53349;53.538;8.584;2024-03-08T05:21:53;1.08;85.36
66522;SHT31;53349;53.538;8.584;2024-03-08T05:24:18;1.17;85.22
66522;SHT31;53349;53.538;8.584;2024-03-08T05:26:44;1.03;85.65
66522;SHT31;53349;53.538;8.584;2024-03-08T05:29:10;1.00;85.73
66522;SHT31;53349;53.538;8.584;2024-03-08T05:31:46;0.90;86.06
66522;SHT31;53349;53.538;8.584;2024-03-08T05:34:11;1.04;85.53
66522;SHT31;53349;53.538;8.584;2024-03-08T05:36:36;1.01;85.78
66522;SHT31;53349;53.538;8.584;2024-03-08T05:39:02;1.00;85.77
66522;SHT31;53349;53.538;8.584;2024-03-08T05:41:27;0.97;85.65
66522;SHT31;53349;53.538;8.584;2024-03-08T05:43:52;1.01;85.65
66522;SHT31;53349;53.538;8.584;2024-03-08T05:46:18;1.04;85.33
66522;SHT31;53349;53.538;8.584;2024-03-08T05:48:43;0.94;85.72
66522;SHT31;53349;53.538;8.584;2024-03-08T05:51:09;1.03;85.59
66522;SHT31;53349;53.538;8.584;2024-03-08T05:53:34;0.99;85.32
66522;SHT31;53349;53.538;8.584;2024-03-08T05:55:59;0.97;85.47
66522;SHT31;53349;53.538;8.584;2024-03-08T05:58:25;0.92;85.73
66522;SHT31;53349;53.538;8.584;2024-03-08T06:00:50;0.94;85.48
66522;SHT31;53349;53.538;8.584;2024-03-08T06:03:15;1.03;85.42
66522;SHT31;53349;53.538;8.584;2024-03-08T06:05:41;0.94;85.42
66522;SHT31;53349;53.538;8.584;2024-03-08T06:08:06;0.93;85.65
66522;SHT31;53349;53.538;8.584;2024-03-08T06:10:34;0.97;85.44
66522;SHT31;53349;53.538;8.584;2024-03-08T06:12:59;0.93;85.47
66522;SHT31;53349;53.538;8.584;2024-03-08T06:15:25;1.01;85.43
66522;SHT31;53349;53.538;8.584;2024-03-08T06:17:50;0.96;85.48
66522;SHT31;53349;53.538;8.584;2024-03-08T06:20:16;1.03;85.27
66522;SHT31;53349;53.538;8.584;2024-03-08T06:22:42;0.94;85.36
66522;SHT31;53349;53.538;8.584;2024-03-08T06:25:08;0.97;85.56
66522;SHT31;53349;53.538;8.584;2024-03-08T06:27:34;0.92;85.44
66522;SHT31;53349;53.538;8.584;2024-03-08T06:30:00;1.07;85.26
66522;SHT31;53349;53.538;8.584;2024-03-08T06:32:25;0.90;85.31
66522;SHT31;53349;53.538;8.584;2024-03-08T06:34:50;1.01;85.11
66522;SHT31;53349;53.538;8.584;2024-03-08T06:37:16;0.94;85.40
66522;SHT31;53349;53.538;8.584;2024-03-08T06:39:41;1.00;85.35
66522;SHT31;53349;53.538;8.584;2024-03-08T06:42:06;0.99;85.38
66522;SHT31;53349;53.538;8.584;2024-03-08T06:44:32;1.03;85.19
66522;SHT31;53349;53.538;8.584;2024-03-08T06:46:57;1.13;84.82
66522;SHT31;53349;53.538;8.584;2024-03-08T06:49:22;1.11;84.97
66522;SHT31;53349;53.538;8.584;2024-03-08T06:51:48;1.11;85.08
66522;SHT31;53349;53.538;8.584;2024-03-08T06:54:13;1.90;89.68
66522;SHT31;53349;53.538;8.584;2024-03-08T06:56:38;2.30;88.98
66522;SHT31;53349;53.538;8.584;2024-03-08T06:59:04;2.36;87.12
66522;SHT31;53349;53.538;8.584;2024-03-08T07:01:30;2.05;83.97
66522;SHT31;53349;53.538;8.584;2024-03-08T07:04:00;1.79;83.49
66522;SHT31;53349;53.538;8.584;2024-03-08T07:06:33;1.66;83.39
66522;SHT31;53349;53.538;8.584;2024-03-08T07:08:59;1.73;83.20
66522;SHT31;53349;53.538;8.584;2024-03-08T07:11:24;1.92;82.70
66522;SHT31;53349;53.538;8.584;2024-03-08T07:13:50;2.02;82.21
66522;SHT31;53349;53.538;8.584;2024-03-08T07:16:15;2.37;84.31
66522;SHT31;53349;53.538;8.584;2024-03-08T07:18:40;2.58;81.39
66522;SHT31;53349;53.538;8.584;2024-03-08T07:21:06;2.69;82.47
66522;SHT31;53349;53.538;8.584;2024-03-08T07:23:31;2.92;81.30
66522;SHT31;53349;53.538;8.584;2024-03-08T07:25:57;3.15;79.58
66522;SHT31;53349;53.538;8.584;2024-03-08T07:28:22;3.40;79.05
66522;SHT31;53349;53.538;8.584;2024-03-08T07:30:47;3.36;76.81
66522;SHT31;53349;53.538;8.584;2024-03-08T07:33:12;3.28;77.17
66522;SHT31;53349;53.538;8.584;2024-03-08T07:35:38;3.61;77.30
66522;SHT31;53349;53.538;8.584;2024-03-08T07:40:29;4.01;75.31
66522;SHT31;53349;53.538;8.584;2024-03-08T07:42:55;4.15;74.51
66522;SHT31;53349;53.538;8.584;2024-03-08T07:45:20;4.09;74.63
66522;SHT31;53349;53.538;8.584;2024-03-08T07:47:45;4.16;74.06
66522;SHT31;53349;53.538;8.584;2024-03-08T07:50:11;3.96;73.85
66522;SHT31;53349;53.538;8.584;2024-03-08T07:52:36;4.15;73.48
66522;SHT31;53349;53.538;8.584;2024-03-08T07:55:05;4.28;72.89
66522;SHT31;53349;53.538;8.584;2024-03-08T07:57:30;4.58;72.09
66522;SHT31;53349;53.538;8.584;2024-03-08T07:59:56;4.56;72.15
66522;SHT31;53349;53.538;8.584;2024-03-08T08:02:21;4.84;70.93
66522;SHT31;53349;53.538;8.584;2024-03-08T08:04:47;4.99;70.22
66522;SHT31;53349;53.538;8.584;2024-03-08T08:07:12;5.32;69.81
66522;SHT31;53349;53.538;8.584;2024-03-08T08:09:38;5.26;68.94
66522;SHT31;53349;53.538;8.584;2024-03-08T08:12:03;5.46;70.01
66522;SHT31;53349;53.538;8.584;2024-03-08T08:14:29;5.93;70.31
66522;SHT31;53349;53.538;8.584;2024-03-08T08:16:55;6.36;68.44
66522;SHT31;53349;53.538;8.584;2024-03-08T08:19:20;6.77;66.75
66522;SHT31;53349;53.538;8.584;2024-03-08T08:21:46;6.72;65.14
66522;SHT31;53349;53.538;8.584;2024-03-08T08:24:11;6.79;65.73
66522;SHT31;53349;53.538;8.584;2024-03-08T08:26:36;6.97;63.19
66522;SHT31;53349;53.538;8.584;2024-03-08T08:29:02;6.69;63.05
66522;SHT31;53349;53.538;8.584;2024-03-08T08:31:27;6.66;63.20
66522;SHT31;53349;53.538;8.584;2024-03-08T08:33:52;6.76;63.05
66522;SHT31;53349;53.538;8.584;2024-03-08T08:36:18;7.05;62.63
66522;SHT31;53349;53.538;8.584;2024-03-08T08:38:43;7.69;60.93
66522;SHT31;53349;53.538;8.584;2024-03-08T08:41:11;7.55;60.41
66522;SHT31;53349;53.538;8.584;2024-03-08T08:43:37;7.49;60.05
66522;SHT31;53349;53.538;8.584;2024-03-08T08:46:02;8.01;59.03
66522;SHT31;53349;53.538;8.584;2024-03-08T08:48:28;8.41;57.97
66522;SHT31;53349;53.538;8.584;2024-03-08T08:50:53;8.45;57.44
66522;SHT31;53349;53.538;8.584;2024-03-08T08:53:18;8.64;57.01
66522;SHT31;53349;53.538;8.584;2024-03-08T08:55:44;9.12;56.56
66522;SHT31;53349;53.538;8.584;2024-03-08T08:58:09;9.24;55.50
66522;SHT31;53349;53.538;8.584;2024-03-08T09:00:35;9.45;54.45
66522;SHT31;53349;53.538;8.584;2024-03-08T09:03:00;9.79;54.17
66522;SHT31;53349;53.538;8.584;2024-03-08T09:05:25;10.02;53.04
66522;SHT31;53349;53.538;8.584;2024-03-08T09:07:51;10.33;52.59
66522;SHT31;53349;53.538;8.584;2024-03-08T09:10:16;11.01;51.06
66522;SHT31;53349;53.538;8.584;2024-03-08T09:12:41;10.79;50.82
66522;SHT31;53349;53.538;8.584;2024-03-08T09:15:07;11.35;49.38
66522;SHT31;53349;53.538;8.584;2024-03-08T09:17:34;11.23;49.35
66522;SHT31;53349;53.538;8.584;2024-03-08T09:19:59;11.52;47.96
66522;SHT31;53349;53.538;8.584;2024-03-08T09:22:25;11.60;47.30
66522;SHT31;53349;53.538;8.584;2024-03-08T09:24:50;12.25;45.64
66522;SHT31;53349;53.538;8.584;2024-03-08T09:27:15;11.67;46.42
66522;SHT31;53349;53.538;8.584;2024-03-08T09:29:41;11.08;47.81
66522;SHT31;53349;53.538;8.584;2024-03-08T09:32:06;11.70;46.80
66522;SHT31;53349;53.538;8.584;2024-03-08T09:34:31;11.18;47.33
66522;SHT31;53349;53.538;8.584;2024-03-08T09:36:57;11.04;47.70
66522;SHT31;53349;53.538;8.584;2024-03-08T09:39:22;11.15;47.14
66522;SHT31;53349;53.538;8.584;2024-03-08T09:41:47;11.09;47.20
66522;SHT31;53349;53.538;8.584;2024-03-08T09:44:14;10.82;47.32
66522;SHT31;53349;53.538;8.584;2024-03-08T09:46:40;11.01;47.47
66522;SHT31;53349;53.538;8.584;2024-03-08T09:49:06;11.05;47.07
66522;SHT31;53349;53.538;8.584;2024-03-08T09:51:33;11.78;45.89
66522;SHT31;53349;53.538;8.584;2024-03-08T09:53:59;11.93;45.62
66522;SHT31;53349;53.538;8.584;2024-03-08T09:56:25;11.81;46.00
66522;SHT31;53349;53.538;8.584;2024-03-08T09:58:51;12.12;45.63
66522;SHT31;53349;53.538;8.584;2024-03-08T10:01:16;11.50;46.23
66522;SHT31;53349;53.538;8.584;2024-03-08T10:03:41;11.22;46.70
66522;SHT31;53349;53.538;8.584;2024-03-08T10:06:07;11.12;46.93
66522;SHT31;53349;53.538;8.584;2024-03-08T10:08:32;11.14;46.54
66522;SHT31;53349;53.538;8.584;2024-03-08T10:10:58;11.14;46.35
66522;SHT31;53349;53.538;8.584;2024-03-08T10:13:24;11.37;46.35
66522;SHT31;53349;53.538;8.584;2024-03-08T10:15:50;11.16;46.10
66522;SHT31;53349;53.538;8.584;2024-03-08T10:18:15;11.37;46.04
66522;SHT31;53349;53.538;8.584;2024-03-08T10:20:41;11.19;46.33
66522;SHT31;53349;53.538;8.584;2024-03-08T10:23:06;11.20;45.85
66522;SHT31;53349;53.538;8.584;2024-03-08T10:25:32;11.04;45.74
66522;SHT31;53349;53.538;8.584;2024-03-08T10:27:57;10.92;46.08
66522;SHT31;53349;53.538;8.584;2024-03-08T10:30:23;10.75;46.78
66522;SHT31;53349;53.538;8.584;2024-03-08T10:32:49;10.36;47.74
66522;SHT31;53349;53.538;8.584;2024-03-08T10:35:14;10.44;47.43
66522;SHT31;53349;53.538;8.584;2024-03-08T10:37:48;10.33;47.65
66522;SHT31;53349;53.538;8.584;2024-03-08T10:40:17;10.67;47.12
66522;SHT31;53349;53.538;8.584;2024-03-08T10:42:59;10.53;47.45
66522;SHT31;53349;53.538;8.584;2024-03-08T10:45:38;10.64;46.78
66522;SHT31;53349;53.538;8.584;2024-03-08T10:50:32;10.53;47.53
66522;SHT31;53349;53.538;8.584;2024-03-08T10:52:58;11.19;45.85
66522;SHT31;53349;53.538;8.584;2024-03-08T10:55:25;11.33;46.74
66522;SHT31;53349;53.538;8.584;2024-03-08T10:57:50;11.18;45.08
66522;SHT31;53349;53.538;8.584;2024-03-08T11:00:16;11.50;45.00
66522;SHT31;53349;53.538;8.584;2024-03-08T11:02:45;11.18;44.95
66522;SHT31;53349;53.538;8.584;2024-03-08T11:05:10;10.85;46.25
66522;SHT31;53349;53.538;8.584;2024-03-08T11:07:42;10.84;46.09
66522;SHT31;53349;53.538;8.584;2024-03-08T11:10:19;11.25;45.63
66522;SHT31;53349;53.538;8.584;2024-03-08T11:12:45;10.99;45.20
66522;SHT31;53349;53.538;8.584;2024-03-08T11:15:11;11.02;45.48
66522;SHT31;53349;53.538;8.584;2024-03-08T11:20:02;10.39;46.86
66522;SHT31;53349;53.538;8.584;2024-03-08T11:22:29;10.36;47.02
66522;SHT31;53349;53.538;8.584;2024-03-08T11:24:59;10.71;46.69
66522;SHT31;53349;53.538;8.584;2024-03-08T11:27:30;10.75;46.53
66522;SHT31;53349;53.538;8.584;2024-03-08T11:30:04;10.43;47.15
66522;SHT31;53349;53.538;8.584;2024-03-08T11:32:29;10.26;46.78
66522;SHT31;53349;53.538;8.584;2024-03-08T11:34:55;10.05;47.32
66522;SHT31;53349;53.538;8.584;2024-03-08T11:37:21;10.19;47.66
66522;SHT31;53349;53.538;8.584;2024-03-08T11:42:11;10.20;48.08
66522;SHT31;53349;53.538;8.584;2024-03-08T11:44:37;10.21;48.18
66522;SHT31;53349;53.538;8.584;2024-03-08T11:47:09;10.08;48.82
66522;SHT31;53349;53.538;8.584;2024-03-08T11:49:34;9.88;48.75
66522;SHT31;53349;53.538;8.584;2024-03-08T11:52:00;10.09;48.86
66522;SHT31;53349;53.538;8.584;2024-03-08T11:54:25;9.82;49.32
66522;SHT31;53349;53.538;8.584;2024-03-08T11:56:51;9.96;48.68
66522;SHT31;53349;53.538;8.584;2024-03-08T11:59:17;9.71;49.31
66522;SHT31;53349;53.538;8.584;2024-03-08T12:01:43;9.74;49.68
66522;SHT31;53349;53.538;8.584;2024-03-08T12:04:12;9.89;49.41
66522;SHT31;53349;53.538;8.584;2024-03-08T12:06:38;9.77;49.76
66522;SHT31;53349;53.538;8.584;2024-03-08T12:09:05;9.82;49.70
66522;SHT31;53349;53.538;8.584;2024-03-08T12:11:33;9.71;50.68
66522;SHT31;53349;53.538;8.584;2024-03-08T12:13:58;9.42;50.46
66522;SHT31;53349;53.538;8.584;2024-03-08T12:16:23;9.48;50.70
66522;SHT31;53349;53.538;8.584;2024-03-08T12:18:51;9.23;51.25
66522;SHT31;53349;53.538;8.584;2024-03-08T12:21:16;9.37;50.90
66522;SHT31;53349;53.538;8.584;2024-03-08T12:23:42;9.42;51.18
66522;SHT31;53349;53.538;8.584;2024-03-08T12:26:15;9.50;51.32
66522;SHT31;53349;53.538;8.584;2024-03-08T12:28:41;9.35;51.27
66522;SHT31;53349;53.538;8.584;2024-03-08T12:31:07;9.12;51.81
66522;SHT31;53349;53.538;8.584;2024-03-08T12:33:33;8.93;51.91
66522;SHT31;53349;53.538;8.584;2024-03-08T12:35:58;8.73;52.62
66522;SHT31;53349;53.538;8.584;2024-03-08T12:38:28;8.79;52.75
66522;SHT31;53349;53.538;8.584;2024-03-08T12:40:59;8.79;52.64
66522;SHT31;53349;53.538;8.584;2024-03-08T12:43:25;8.55;53.37
66522;SHT31;53349;53.538;8.584;2024-03-08T12:45:51;8.54;53.34
66522;SHT31;53349;53.538;8.584;2024-03-08T12:48:16;8.59;53.27
66522;SHT31;53349;53.538;8.584;2024-03-08T12:50:42;8.59;53.46
66522;SHT31;53349;53.538;8.584;2024-03-08T12:53:07;8.48;53.44
66522;SHT31;53349;53.538;8.584;2024-03-08T12:55:32;8.46;53.90
66522;SHT31;53349;53.538;8.584;2024-03-08T12:57:58;8.59;53.89
66522;SHT31;53349;53.538;8.584;2024-03-08T13:00:23;8.55;53.76
66522;SHT31;53349;53.538;8.584;2024-03-08T13:02:48;8.61;54.27
66522;SHT31;53349;53.538;8.584;2024-03-08T13:05:14;8.71;54.13
66522;SHT31;53349;53.538;8.584;2024-03-08T13:07:40;8.82;53.91
66522;SHT31;53349;53.538;8.584;2024-03-08T13:10:06;8.76;53.60
66522;SHT31;53349;53.538;8.584;2024-03-08T13:12:32;8.64;53.90
66522;SHT31;53349;53.538;8.584;2024-03-08T13:14:57;8.48;54.17
66522;SHT31;53349;53.538;8.584;2024-03-08T13:17:22;8.55;54.08
66522;SHT31;53349;53.538;8.584;2024-03-08T13:19:48;8.66;54.11
66522;SHT31;53349;53.538;8.584;2024-03-08T13:22:13;8.55;54.32
66522;SHT31;53349;53.538;8.584;2024-03-08T13:24:39;8.38;54.46
66522;SHT31;53349;53.538;8.584;2024-03-08T13:27:05;8.25;54.89
66522;SHT31;53349;53.538;8.584;2024-03-08T13:29:30;8.25;55.02
66522;SHT31;53349;53.538;8.584;2024-03-08T13:31:55;8.31;55.28
66522;SHT31;53349;53.538;8.584;2024-03-08T13:34:21;8.42;55.03
66522;SHT31;53349;53.538;8.584;2024-03-08T13:36:46;8.44;54.82
66522;SHT31;53349;53.538;8.584;2024-03-08T13:39:11;8.41;54.80
66522;SHT31;53349;53.538;8.584;2024-03-08T13:41:37;8.55;54.80
66522;SHT31;53349;53.538;8.584;2024-03-08T13:44:02;8.59;54.83
66522;SHT31;53349;53.538;8.584;2024-03-08T13:46:28;8.58;54.69
66522;SHT31;53349;53.538;8.584;2024-03-08T13:48:54;8.41;54.49
66522;SHT31;53349;53.538;8.584;2024-03-08T13:51:19;8.41;54.54
66522;SHT31;53349;53.538;8.584;2024-03-08T13:53:44;8.54;54.14
66522;SHT31;53349;53.538;8.584;2024-03-08T13:56:10;8.48;54.00
66522;SHT31;53349;53.538;8.584;2024-03-08T13:58:35;8.52;54.12
66522;SHT31;53349;53.538;8.584;2024-03-08T14:01:01;8.52;54.30
66522;SHT31;53349;53.538;8.584;2024-03-08T14:03:26;8.40;54.87
66522;SHT31;53349;53.538;8.584;2024-03-08T14:05:51;8.58;54.73
66522;SHT31;53349;53.538;8.584;2024-03-08T14:08:17;8.38;55.11
66522;SHT31;53349;53.538;8.584;2024-03-08T14:10:43;8.46;54.97
66522;SHT31;53349;53.538;8.584;2024-03-08T14:13:08;8.59;55.25
66522;SHT31;53349;53.538;8.584;2024-03-08T14:15:34;8.56;55.46
66522;SHT31;53349;53.538;8.584;2024-03-08T14:18:00;8.72;57.92
66522;SHT31;53349;53.538;8.584;2024-03-08T14:20:25;8.79;55.96
66522;SHT31;53349;53.538;8.584;2024-03-08T14:22:52;8.68;56.06
66522;SHT31;53349;53.538;8.584;2024-03-08T14:25:18;8.65;55.30
66522;SHT31;53349;53.538;8.584;2024-03-08T14:27:45;8.48;55.13
66522;SHT31;53349;53.538;8.584;2024-03-08T14:30:11;8.56;54.77
66522;SHT31;53349;53.538;8.584;2024-03-08T14:32:37;8.55;54.75
66522;SHT31;53349;53.538;8.584;2024-03-08T14:35:02;8.58;55.75
66522;SHT31;53349;53.538;8.584;2024-03-08T14:37:28;8.56;56.20
66522;SHT31;53349;53.538;8.584;2024-03-08T14:39:53;8.46;56.67
66522;SHT31;53349;53.538;8.584;2024-03-08T14:42:18;8.49;56.73
66522;SHT31;53349;53.538;8.584;2024-03-08T14:44:44;8.46;56.67
66522;SHT31;53349;53.538;8.584;2024-03-08T14:47:10;8.40;57.15
66522;SHT31;53349;53.538;8.584;2024-03-08T14:49:35;8.42;56.89
66522;SHT31;53349;53.538;8.584;2024-03-08T14:52:00;8.48;56.64
66522;SHT31;53349;53.538;8.584;2024-03-08T14:54:26;8.46;57.04
66522;SHT31;53349;53.538;8.584;2024-03-08T14:56:51;8.49;57.08
66522;SHT31;53349;53.538;8.584;2024-03-08T14:59:16;8.42;56.44
66522;SHT31;53349;53.538;8.584;2024-03-08T15:01:42;8.46;56.85
66522;SHT31;53349;53.538;8.584;2024-03-08T15:04:07;8.45;57.19
66522;SHT31;53349;53.538;8.584;2024-03-08T15:06:33;8.38;56.82
66522;SHT31;53349;53.538;8.584;2024-03-08T15:08:58;8.37;56.79
66522;SHT31;53349;53.538;8.584;2024-03-08T15:11:23;8.35;56.91
66522;SHT31;53349;53.538;8.584;2024-03-08T15:13:49;8.38;56.66
66522;SHT31;53349;53.538;8.584;2024-03-08T15:16:14;8.35;56.70
66522;SHT31;53349;53.538;8.584;2024-03-08T15:18:39;8.33;56.66
66522;SHT31;53349;53.538;8.584;2024-03-08T15:21:06;8.23;56.72
66522;SHT31;53349;53.538;8.584;2024-03-08T15:23:37;8.27;56.82
66522;SHT31;53349;53.538;8.584;2024-03-08T15:26:03;8.27;56.27
66522;SHT31;53349;53.538;8.584;2024-03-08T15:28:29;8.25;56.53
66522;SHT31;53349;53.538;8.584;2024-03-08T15:30:55;8.34;56.52
66522;SHT31;53349;53.538;8.584;2024-03-08T15:33:20;8.33;56.28
66522;SHT31;53349;53.538;8.584;2024-03-08T15:35:45;8.28;55.83
66522;SHT31;53349;53.538;8.584;2024-03-08T15:38:11;8.31;55.99
66522;SHT31;53349;53.538;8.584;2024-03-08T15:40:36;8.30;55.98
66522;SHT31;53349;53.538;8.584;2024-03-08T15:43:01;8.40;55.82